sensor_id;sensor_type;location;lat;lon;timestamp;P1;durP1;ratioP1;P2;durP2;ratioP2
5085;SDS011;4715;51.660;7.082;2023-03-12T00:02:18;5.00;;;4.23;;
5085;SDS011;4715;51.660;7.082;2023-03-12T00:04:40;6.40;;;3.80;;
5085;SDS011;4715;51.660;7.082;2023-03-12T00:07:02;3.67;;;3.30;;
5085;SDS011;4715;51.660;7.082;2023-03-12T00:09:25;4.13;;;3.80;;
5085;SDS011;4715;51.660;7.082;2023-03-12T00:11:48;5.70;;;3.90;;
5085;SDS011;4715;51.660;7.082;2023-03-12T00:14:10;4.37;;;3.60;;
5085;SDS011;4715;51.660;7.082;2023-03-12T00:16:34;4.07;;;3.73;;
5085;SDS011;4715;51.660;7.082;2023-03-12T00:18:55;3.33;;;3.03;;
5085;SDS011;4715;51.660;7.082;2023-03-12T00:21:17;4.20;;;3.67;;
5085;SDS011;4715;51.660;7.082;2023-03-12T00:23:41;5.00;;;3.33;;
5085;SDS011;4715;51.660;7.082;2023-03-12T00:26:04;5.47;;;3.50;;
5085;SDS011;4715;51.660;7.082;2023-03-12T00:28:27;3.10;;;2.73;;
5085;SDS011;4715;51.660;7.082;2023-03-12T00:30:49;3.73;;;3.23;;
5085;SDS011;4715;51.660;7.082;2023-03-12T00:33:13;3.00;;;2.80;;
5085;SDS011;4715;51.660;7.082;2023-03-12T00:35:36;3.63;;;3.30;;
5085;SDS011;4715;51.660;7.082;2023-03-12T00:37:58;2.53;;;2.33;;
5085;SDS011;4715;51.660;7.082;2023-03-12T00:40:23;5.30;;;2.80;;
5085;SDS011;4715;51.660;7.082;2023-03-12T00:42:45;2.80;;;2.60;;
5085;SDS011;4715;51.660;7.082;2023-03-12T00:45:07;4.00;;;3.53;;
5085;SDS011;4715;51.660;7.082;2023-03-12T00:47:29;3.23;;;2.93;;
5085;SDS011;4715;51.660;7.082;2023-03-12T00:49:52;5.30;;;3.23;;
5085;SDS011;4715;51.660;7.082;2023-03-12T00:52:14;3.60;;;3.30;;
5085;SDS011;4715;51.660;7.082;2023-03-12T00:54:36;3.07;;;2.87;;
5085;SDS011;4715;51.660;7.082;2023-03-12T00:56:59;3.20;;;2.80;;
5085;SDS011;4715;51.660;7.082;2023-03-12T00:59:21;3.63;;;2.97;;
5085;SDS011;4715;51.660;7.082;2023-03-12T01:01:43;3.93;;;3.50;;
5085;SDS011;4715;51.660;7.082;2023-03-12T01:04:05;2.90;;;2.60;;
5085;SDS011;4715;51.660;7.082;2023-03-12T01:06:28;3.63;;;3.30;;
5085;SDS011;4715;51.660;7.082;2023-03-12T01:08:50;3.23;;;3.03;;
5085;SDS011;4715;51.660;7.082;2023-03-12T01:11:12;2.93;;;2.73;;
5085;SDS011;4715;51.660;7.082;2023-03-12T01:13:34;4.07;;;3.73;;
5085;SDS011;4715;51.660;7.082;2023-03-12T01:15:56;3.07;;;2.80;;
5085;SDS011;4715;51.660;7.082;2023-03-12T01:18:18;3.37;;;3.10;;
5085;SDS011;4715;51.660;7.082;2023-03-12T01:20:40;8.10;;;2.83;;
5085;SDS011;4715;51.660;7.082;2023-03-12T01:23:03;2.90;;;2.70;;
5085;SDS011;4715;51.660;7.082;2023-03-12T01:25:25;2.80;;;2.60;;
5085;SDS011;4715;51.660;7.082;2023-03-12T01:27:46;3.43;;;3.10;;
5085;SDS011;4715;51.660;7.082;2023-03-12T01:30:09;3.60;;;3.27;;
5085;SDS011;4715;51.660;7.082;2023-03-12T01:32:31;2.43;;;2.33;;
5085;SDS011;4715;51.660;7.082;2023-03-12T01:34:53;3.17;;;2.87;;
5085;SDS011;4715;51.660;7.082;2023-03-12T01:37:15;3.23;;;2.93;;
5085;SDS011;4715;51.660;7.082;2023-03-12T01:39:38;3.73;;;3.10;;
5085;SDS011;4715;51.660;7.082;2023-03-12T01:42:01;3.60;;;3.30;;
5085;SDS011;4715;51.660;7.082;2023-03-12T01:44:23;3.57;;;3.13;;
5085;SDS011;4715;51.660;7.082;2023-03-12T01:46:45;3.97;;;2.93;;
5085;SDS011;4715;51.660;7.082;2023-03-12T01:49:07;5.27;;;3.10;;
5085;SDS011;4715;51.660;7.082;2023-03-12T01:51:32;3.60;;;3.40;;
5085;SDS011;4715;51.660;7.082;2023-03-12T01:53:57;4.53;;;3.00;;
5085;SDS011;4715;51.660;7.082;2023-03-12T01:56:22;4.23;;;2.90;;
5085;SDS011;4715;51.660;7.082;2023-03-12T01:58:49;3.50;;;2.57;;
5085;SDS011;4715;51.660;7.082;2023-03-12T02:01:15;2.60;;;2.40;;
5085;SDS011;4715;51.660;7.082;2023-03-12T02:03:38;2.97;;;2.77;;
5085;SDS011;4715;51.660;7.082;2023-03-12T02:06:01;5.00;;;3.17;;
5085;SDS011;4715;51.660;7.082;2023-03-12T02:08:28;4.20;;;3.73;;
5085;SDS011;4715;51.660;7.082;2023-03-12T02:10:50;3.23;;;3.03;;
5085;SDS011;4715;51.660;7.082;2023-03-12T02:13:13;3.87;;;2.70;;
5085;SDS011;4715;51.660;7.082;2023-03-12T02:15:35;3.17;;;2.97;;
5085;SDS011;4715;51.660;7.082;2023-03-12T02:17:58;3.27;;;3.03;;
5085;SDS011;4715;51.660;7.082;2023-03-12T02:20:23;3.07;;;2.87;;
5085;SDS011;4715;51.660;7.082;2023-03-12T02:22:48;3.70;;;3.03;;
5085;SDS011;4715;51.660;7.082;2023-03-12T02:25:20;2.77;;;2.57;;
5085;SDS011;4715;51.660;7.082;2023-03-12T02:27:46;3.30;;;3.10;;
5085;SDS011;4715;51.660;7.082;2023-03-12T02:30:09;9.60;;;2.90;;
5085;SDS011;4715;51.660;7.082;2023-03-12T02:32:36;3.00;;;2.73;;
5085;SDS011;4715;51.660;7.082;2023-03-12T02:34:59;3.03;;;2.60;;
5085;SDS011;4715;51.660;7.082;2023-03-12T02:37:22;2.47;;;2.37;;
5085;SDS011;4715;51.660;7.082;2023-03-12T02:39:44;2.30;;;2.10;;
5085;SDS011;4715;51.660;7.082;2023-03-12T02:42:13;4.33;;;2.87;;
5085;SDS011;4715;51.660;7.082;2023-03-12T02:44:35;2.60;;;2.40;;
5085;SDS011;4715;51.660;7.082;2023-03-12T02:46:58;2.73;;;2.20;;
5085;SDS011;4715;51.660;7.082;2023-03-12T02:49:22;4.53;;;2.87;;
5085;SDS011;4715;51.660;7.082;2023-03-12T02:51:45;2.80;;;2.30;;
5085;SDS011;4715;51.660;7.082;2023-03-12T02:54:11;2.83;;;2.63;;
5085;SDS011;4715;51.660;7.082;2023-03-12T02:56:34;2.63;;;2.43;;
5085;SDS011;4715;51.660;7.082;2023-03-12T02:58:57;3.03;;;2.20;;
5085;SDS011;4715;51.660;7.082;2023-03-12T03:01:19;2.03;;;1.93;;
5085;SDS011;4715;51.660;7.082;2023-03-12T03:03:41;2.97;;;2.30;;
5085;SDS011;4715;51.660;7.082;2023-03-12T03:06:03;2.40;;;2.20;;
5085;SDS011;4715;51.660;7.082;2023-03-12T03:08:25;2.30;;;2.10;;
5085;SDS011;4715;51.660;7.082;2023-03-12T03:10:49;2.80;;;2.20;;
5085;SDS011;4715;51.660;7.082;2023-03-12T03:13:11;2.90;;;2.53;;
5085;SDS011;4715;51.660;7.082;2023-03-12T03:15:37;2.40;;;2.27;;
5085;SDS011;4715;51.660;7.082;2023-03-12T03:17:59;4.77;;;2.60;;
5085;SDS011;4715;51.660;7.082;2023-03-12T03:20:22;2.00;;;1.90;;
5085;SDS011;4715;51.660;7.082;2023-03-12T03:22:45;2.70;;;2.30;;
5085;SDS011;4715;51.660;7.082;2023-03-12T03:25:07;2.23;;;1.87;;
5085;SDS011;4715;51.660;7.082;2023-03-12T03:27:30;1.60;;;1.50;;
5085;SDS011;4715;51.660;7.082;2023-03-12T03:29:51;2.63;;;1.90;;
5085;SDS011;4715;51.660;7.082;2023-03-12T03:32:15;2.17;;;1.97;;
5085;SDS011;4715;51.660;7.082;2023-03-12T03:34:36;2.07;;;1.83;;
5085;SDS011;4715;51.660;7.082;2023-03-12T03:36:59;2.03;;;1.90;;
5085;SDS011;4715;51.660;7.082;2023-03-12T03:39:21;1.77;;;1.67;;
5085;SDS011;4715;51.660;7.082;2023-03-12T03:41:44;2.10;;;2.00;;
5085;SDS011;4715;51.660;7.082;2023-03-12T03:44:07;1.57;;;1.47;;
5085;SDS011;4715;51.660;7.082;2023-03-12T03:46:29;1.63;;;1.53;;
5085;SDS011;4715;51.660;7.082;2023-03-12T03:48:52;1.50;;;1.40;;
5085;SDS011;4715;51.660;7.082;2023-03-12T03:51:14;1.80;;;1.70;;
5085;SDS011;4715;51.660;7.082;2023-03-12T03:53:35;2.70;;;1.50;;
5085;SDS011;4715;51.660;7.082;2023-03-12T03:55:57;2.00;;;1.63;;
5085;SDS011;4715;51.660;7.082;2023-03-12T03:58:24;5.90;;;1.97;;
5085;SDS011;4715;51.660;7.082;2023-03-12T04:00:47;1.80;;;1.70;;
5085;SDS011;4715;51.660;7.082;2023-03-12T04:03:08;2.53;;;2.33;;
5085;SDS011;4715;51.660;7.082;2023-03-12T04:05:32;1.67;;;1.57;;
5085;SDS011;4715;51.660;7.082;2023-03-12T04:07:53;1.20;;;1.10;;
5085;SDS011;4715;51.660;7.082;2023-03-12T04:10:16;1.60;;;1.50;;
5085;SDS011;4715;51.660;7.082;2023-03-12T04:12:39;1.90;;;1.80;;
5085;SDS011;4715;51.660;7.082;2023-03-12T04:15:01;1.47;;;1.37;;
5085;SDS011;4715;51.660;7.082;2023-03-12T04:17:23;2.17;;;1.50;;
5085;SDS011;4715;51.660;7.082;2023-03-12T04:19:44;1.50;;;1.37;;
5085;SDS011;4715;51.660;7.082;2023-03-12T04:22:09;3.03;;;1.77;;
5085;SDS011;4715;51.660;7.082;2023-03-12T04:24:31;1.70;;;1.60;;
5085;SDS011;4715;51.660;7.082;2023-03-12T04:26:53;1.57;;;1.17;;
5085;SDS011;4715;51.660;7.082;2023-03-12T04:29:15;1.70;;;1.60;;
5085;SDS011;4715;51.660;7.082;2023-03-12T04:31:36;2.40;;;1.40;;
5085;SDS011;4715;51.660;7.082;2023-03-12T04:33:58;2.07;;;1.60;;
5085;SDS011;4715;51.660;7.082;2023-03-12T04:36:21;2.23;;;1.77;;
5085;SDS011;4715;51.660;7.082;2023-03-12T04:38:46;1.43;;;1.33;;
5085;SDS011;4715;51.660;7.082;2023-03-12T04:41:10;1.40;;;1.30;;
5085;SDS011;4715;51.660;7.082;2023-03-12T04:43:35;1.70;;;1.60;;
5085;SDS011;4715;51.660;7.082;2023-03-12T04:45:57;2.00;;;1.80;;
5085;SDS011;4715;51.660;7.082;2023-03-12T04:48:19;2.17;;;1.60;;
5085;SDS011;4715;51.660;7.082;2023-03-12T04:50:41;2.80;;;2.60;;
5085;SDS011;4715;51.660;7.082;2023-03-12T04:53:03;3.20;;;1.60;;
5085;SDS011;4715;51.660;7.082;2023-03-12T04:55:27;2.00;;;1.80;;
5085;SDS011;4715;51.660;7.082;2023-03-12T04:57:48;2.90;;;1.70;;
5085;SDS011;4715;51.660;7.082;2023-03-12T05:00:11;2.90;;;1.80;;
5085;SDS011;4715;51.660;7.082;2023-03-12T05:02:35;2.50;;;2.30;;
5085;SDS011;4715;51.660;7.082;2023-03-12T05:04:57;2.37;;;1.93;;
5085;SDS011;4715;51.660;7.082;2023-03-12T05:07:19;3.93;;;1.87;;
5085;SDS011;4715;51.660;7.082;2023-03-12T05:09:40;3.40;;;2.10;;
5085;SDS011;4715;51.660;7.082;2023-03-12T05:12:04;2.10;;;1.70;;
5085;SDS011;4715;51.660;7.082;2023-03-12T05:14:27;4.73;;;3.10;;
5085;SDS011;4715;51.660;7.082;2023-03-12T05:16:49;2.60;;;1.70;;
5085;SDS011;4715;51.660;7.082;2023-03-12T05:19:11;2.97;;;2.27;;
5085;SDS011;4715;51.660;7.082;2023-03-12T05:21:32;2.33;;;2.13;;
5085;SDS011;4715;51.660;7.082;2023-03-12T05:23:54;2.30;;;2.10;;
5085;SDS011;4715;51.660;7.082;2023-03-12T05:26:16;2.10;;;2.00;;
5085;SDS011;4715;51.660;7.082;2023-03-12T05:28:41;3.80;;;2.10;;
5085;SDS011;4715;51.660;7.082;2023-03-12T05:31:06;2.20;;;2.00;;
5085;SDS011;4715;51.660;7.082;2023-03-12T05:33:29;2.40;;;2.03;;
5085;SDS011;4715;51.660;7.082;2023-03-12T05:35:51;4.07;;;1.90;;
5085;SDS011;4715;51.660;7.082;2023-03-12T05:38:13;3.10;;;1.97;;
5085;SDS011;4715;51.660;7.082;2023-03-12T05:40:35;2.03;;;1.87;;
5085;SDS011;4715;51.660;7.082;2023-03-12T05:42:56;2.00;;;1.73;;
5085;SDS011;4715;51.660;7.082;2023-03-12T05:45:20;1.40;;;1.40;;
5085;SDS011;4715;51.660;7.082;2023-03-12T05:47:41;2.37;;;2.17;;
5085;SDS011;4715;51.660;7.082;2023-03-12T05:50:03;2.00;;;1.90;;
5085;SDS011;4715;51.660;7.082;2023-03-12T05:52:26;1.93;;;1.73;;
5085;SDS011;4715;51.660;7.082;2023-03-12T05:54:47;1.63;;;1.53;;
5085;SDS011;4715;51.660;7.082;2023-03-12T05:57:09;1.67;;;1.57;;
5085;SDS011;4715;51.660;7.082;2023-03-12T05:59:31;2.20;;;1.97;;
5085;SDS011;4715;51.660;7.082;2023-03-12T06:01:54;1.90;;;1.70;;
5085;SDS011;4715;51.660;7.082;2023-03-12T06:04:16;2.33;;;2.07;;
5085;SDS011;4715;51.660;7.082;2023-03-12T06:06:38;2.77;;;2.00;;
5085;SDS011;4715;51.660;7.082;2023-03-12T06:09:00;7.43;;;2.33;;
5085;SDS011;4715;51.660;7.082;2023-03-12T06:11:22;5.03;;;1.90;;
5085;SDS011;4715;51.660;7.082;2023-03-12T06:13:44;2.90;;;2.30;;
5085;SDS011;4715;51.660;7.082;2023-03-12T06:16:07;2.60;;;1.97;;
5085;SDS011;4715;51.660;7.082;2023-03-12T06:18:34;3.00;;;2.20;;
5085;SDS011;4715;51.660;7.082;2023-03-12T06:21:06;4.13;;;2.13;;
5085;SDS011;4715;51.660;7.082;2023-03-12T06:23:28;3.63;;;2.30;;
5085;SDS011;4715;51.660;7.082;2023-03-12T06:25:50;3.67;;;2.63;;
5085;SDS011;4715;51.660;7.082;2023-03-12T06:28:12;2.63;;;1.80;;
5085;SDS011;4715;51.660;7.082;2023-03-12T06:30:34;2.43;;;1.87;;
5085;SDS011;4715;51.660;7.082;2023-03-12T06:32:55;2.47;;;2.23;;
5085;SDS011;4715;51.660;7.082;2023-03-12T06:35:19;2.53;;;2.43;;
5085;SDS011;4715;51.660;7.082;2023-03-12T06:37:40;3.63;;;2.10;;
5085;SDS011;4715;51.660;7.082;2023-03-12T06:40:03;4.53;;;2.53;;
5085;SDS011;4715;51.660;7.082;2023-03-12T06:42:29;2.50;;;2.30;;
5085;SDS011;4715;51.660;7.082;2023-03-12T06:44:51;2.37;;;1.63;;
5085;SDS011;4715;51.660;7.082;2023-03-12T06:47:13;2.80;;;2.17;;
5085;SDS011;4715;51.660;7.082;2023-03-12T06:49:36;1.97;;;1.87;;
5085;SDS011;4715;51.660;7.082;2023-03-12T06:51:59;2.40;;;2.10;;
5085;SDS011;4715;51.660;7.082;2023-03-12T06:54:21;2.60;;;2.07;;
5085;SDS011;4715;51.660;7.082;2023-03-12T06:56:46;2.10;;;2.00;;
5085;SDS011;4715;51.660;7.082;2023-03-12T06:59:11;1.87;;;1.77;;
5085;SDS011;4715;51.660;7.082;2023-03-12T07:01:33;5.43;;;2.13;;
5085;SDS011;4715;51.660;7.082;2023-03-12T07:04:00;2.00;;;1.90;;
5085;SDS011;4715;51.660;7.082;2023-03-12T07:06:23;2.70;;;2.13;;
5085;SDS011;4715;51.660;7.082;2023-03-12T07:08:47;2.23;;;2.13;;
5085;SDS011;4715;51.660;7.082;2023-03-12T07:11:11;2.47;;;1.80;;
5085;SDS011;4715;51.660;7.082;2023-03-12T07:13:36;2.43;;;2.23;;
5085;SDS011;4715;51.660;7.082;2023-03-12T07:16:01;3.70;;;1.90;;
5085;SDS011;4715;51.660;7.082;2023-03-12T07:18:24;1.53;;;1.43;;
5085;SDS011;4715;51.660;7.082;2023-03-12T07:20:48;2.47;;;2.30;;
5085;SDS011;4715;51.660;7.082;2023-03-12T07:23:10;1.90;;;1.80;;
5085;SDS011;4715;51.660;7.082;2023-03-12T07:25:35;2.60;;;2.07;;
5085;SDS011;4715;51.660;7.082;2023-03-12T07:27:58;1.77;;;1.67;;
5085;SDS011;4715;51.660;7.082;2023-03-12T07:30:23;3.67;;;2.23;;
5085;SDS011;4715;51.660;7.082;2023-03-12T07:32:52;1.80;;;1.70;;
5085;SDS011;4715;51.660;7.082;2023-03-12T07:35:16;2.70;;;2.50;;
5085;SDS011;4715;51.660;7.082;2023-03-12T07:37:39;2.73;;;1.93;;
5085;SDS011;4715;51.660;7.082;2023-03-12T07:40:02;2.33;;;2.13;;
5085;SDS011;4715;51.660;7.082;2023-03-12T07:42:27;3.10;;;2.33;;
5085;SDS011;4715;51.660;7.082;2023-03-12T07:44:52;3.40;;;2.00;;
5085;SDS011;4715;51.660;7.082;2023-03-12T07:47:14;2.10;;;2.00;;
5085;SDS011;4715;51.660;7.082;2023-03-12T07:49:36;4.67;;;2.20;;
5085;SDS011;4715;51.660;7.082;2023-03-12T07:52:00;2.60;;;2.10;;
5085;SDS011;4715;51.660;7.082;2023-03-12T07:54:25;2.80;;;2.50;;
5085;SDS011;4715;51.660;7.082;2023-03-12T07:56:49;5.77;;;2.50;;
5085;SDS011;4715;51.660;7.082;2023-03-12T07:59:14;5.13;;;2.50;;
5085;SDS011;4715;51.660;7.082;2023-03-12T08:01:38;3.60;;;2.70;;
5085;SDS011;4715;51.660;7.082;2023-03-12T08:04:01;2.60;;;1.80;;
5085;SDS011;4715;51.660;7.082;2023-03-12T08:06:23;2.87;;;2.33;;
5085;SDS011;4715;51.660;7.082;2023-03-12T08:08:48;2.50;;;2.40;;
5085;SDS011;4715;51.660;7.082;2023-03-12T08:11:10;4.40;;;2.10;;
5085;SDS011;4715;51.660;7.082;2023-03-12T08:13:34;3.37;;;2.50;;
5085;SDS011;4715;51.660;7.082;2023-03-12T08:16:01;9.83;;;3.00;;
5085;SDS011;4715;51.660;7.082;2023-03-12T08:18:24;3.23;;;2.30;;
5085;SDS011;4715;51.660;7.082;2023-03-12T08:20:48;7.93;;;2.30;;
5085;SDS011;4715;51.660;7.082;2023-03-12T08:23:17;3.90;;;2.20;;
5085;SDS011;4715;51.660;7.082;2023-03-12T08:25:39;6.80;;;2.83;;
5085;SDS011;4715;51.660;7.082;2023-03-12T08:28:01;3.13;;;2.67;;
5085;SDS011;4715;51.660;7.082;2023-03-12T08:30:25;2.90;;;2.70;;
5085;SDS011;4715;51.660;7.082;2023-03-12T08:32:48;9.87;;;2.47;;
5085;SDS011;4715;51.660;7.082;2023-03-12T08:35:12;2.20;;;2.10;;
5085;SDS011;4715;51.660;7.082;2023-03-12T08:37:34;4.77;;;3.20;;
5085;SDS011;4715;51.660;7.082;2023-03-12T08:39:57;3.30;;;2.67;;
5085;SDS011;4715;51.660;7.082;2023-03-12T08:42:19;2.40;;;2.20;;
5085;SDS011;4715;51.660;7.082;2023-03-12T08:44:44;3.23;;;2.40;;
5085;SDS011;4715;51.660;7.082;2023-03-12T08:47:07;4.67;;;3.30;;
5085;SDS011;4715;51.660;7.082;2023-03-12T08:49:32;4.60;;;3.60;;
5085;SDS011;4715;51.660;7.082;2023-03-12T08:51:54;5.87;;;3.93;;
5085;SDS011;4715;51.660;7.082;2023-03-12T08:54:16;6.13;;;3.20;;
5085;SDS011;4715;51.660;7.082;2023-03-12T08:56:38;3.83;;;3.63;;
5085;SDS011;4715;51.660;7.082;2023-03-12T08:59:02;4.87;;;4.37;;
5085;SDS011;4715;51.660;7.082;2023-03-12T09:01:24;6.60;;;3.97;;
5085;SDS011;4715;51.660;7.082;2023-03-12T09:03:46;4.23;;;3.90;;
5085;SDS011;4715;51.660;7.082;2023-03-12T09:06:11;5.77;;;3.93;;
5085;SDS011;4715;51.660;7.082;2023-03-12T09:08:35;5.30;;;4.20;;
5085;SDS011;4715;51.660;7.082;2023-03-12T09:10:59;4.70;;;3.90;;
5085;SDS011;4715;51.660;7.082;2023-03-12T09:13:21;6.20;;;3.43;;
5085;SDS011;4715;51.660;7.082;2023-03-12T09:15:46;5.60;;;5.03;;
5085;SDS011;4715;51.660;7.082;2023-03-12T09:18:10;4.13;;;3.77;;
5085;SDS011;4715;51.660;7.082;2023-03-12T09:20:33;4.07;;;3.83;;
5085;SDS011;4715;51.660;7.082;2023-03-12T09:22:56;4.97;;;3.60;;
5085;SDS011;4715;51.660;7.082;2023-03-12T09:25:20;12.73;;;3.40;;
5085;SDS011;4715;51.660;7.082;2023-03-12T09:27:43;3.47;;;3.17;;
5085;SDS011;4715;51.660;7.082;2023-03-12T09:30:07;5.47;;;3.90;;
5085;SDS011;4715;51.660;7.082;2023-03-12T09:32:31;5.03;;;3.70;;
5085;SDS011;4715;51.660;7.082;2023-03-12T09:34:53;7.03;;;4.50;;
5085;SDS011;4715;51.660;7.082;2023-03-12T09:37:15;6.60;;;6.00;;
5085;SDS011;4715;51.660;7.082;2023-03-12T09:39:38;5.13;;;4.77;;
5085;SDS011;4715;51.660;7.082;2023-03-12T09:42:00;4.77;;;4.37;;
5085;SDS011;4715;51.660;7.082;2023-03-12T09:44:28;8.27;;;5.03;;
5085;SDS011;4715;51.660;7.082;2023-03-12T09:46:53;5.90;;;4.40;;
5085;SDS011;4715;51.660;7.082;2023-03-12T09:49:18;7.73;;;6.10;;
5085;SDS011;4715;51.660;7.082;2023-03-12T09:51:47;9.30;;;7.20;;
5085;SDS011;4715;51.660;7.082;2023-03-12T09:54:17;13.77;;;7.10;;
5085;SDS011;4715;51.660;7.082;2023-03-12T09:56:46;10.20;;;7.90;;
5085;SDS011;4715;51.660;7.082;2023-03-12T09:59:12;7.93;;;6.67;;
5085;SDS011;4715;51.660;7.082;2023-03-12T10:01:36;7.90;;;6.97;;
5085;SDS011;4715;51.660;7.082;2023-03-12T10:04:06;8.63;;;7.73;;
5085;SDS011;4715;51.660;7.082;2023-03-12T10:06:37;9.00;;;8.03;;
5085;SDS011;4715;51.660;7.082;2023-03-12T10:09:06;10.60;;;7.23;;
5085;SDS011;4715;51.660;7.082;2023-03-12T10:11:42;8.50;;;6.93;;
5085;SDS011;4715;51.660;7.082;2023-03-12T10:14:16;7.37;;;6.67;;
5085;SDS011;4715;51.660;7.082;2023-03-12T10:16:53;6.63;;;6.00;;
5085;SDS011;4715;51.660;7.082;2023-03-12T10:19:34;6.00;;;5.40;;
5085;SDS011;4715;51.660;7.082;2023-03-12T10:22:24;6.37;;;5.70;;
5085;SDS011;4715;51.660;7.082;2023-03-12T10:24:55;6.30;;;5.70;;
5085;SDS011;4715;51.660;7.082;2023-03-12T10:27:27;6.50;;;5.90;;
5085;SDS011;4715;51.660;7.082;2023-03-12T10:29:51;8.57;;;6.83;;
5085;SDS011;4715;51.660;7.082;2023-03-12T10:32:16;8.53;;;6.83;;
5085;SDS011;4715;51.660;7.082;2023-03-12T10:34:42;7.43;;;6.70;;
5085;SDS011;4715;51.660;7.082;2023-03-12T10:37:12;9.80;;;7.73;;
5085;SDS011;4715;51.660;7.082;2023-03-12T10:39:38;10.43;;;7.93;;
5085;SDS011;4715;51.660;7.082;2023-03-12T10:42:20;10.23;;;8.80;;
5085;SDS011;4715;51.660;7.082;2023-03-12T10:44:45;8.53;;;7.47;;
5085;SDS011;4715;51.660;7.082;2023-03-12T10:47:22;12.33;;;9.83;;
5085;SDS011;4715;51.660;7.082;2023-03-12T10:50:10;8.10;;;7.30;;
5085;SDS011;4715;51.660;7.082;2023-03-12T10:52:35;11.43;;;7.30;;
5085;SDS011;4715;51.660;7.082;2023-03-12T10:54:57;8.00;;;6.97;;
5085;SDS011;4715;51.660;7.082;2023-03-12T10:57:37;8.27;;;7.30;;
5085;SDS011;4715;51.660;7.082;2023-03-12T11:00:03;11.13;;;8.27;;
5085;SDS011;4715;51.660;7.082;2023-03-12T11:02:33;10.33;;;8.60;;
5085;SDS011;4715;51.660;7.082;2023-03-12T11:04:59;10.10;;;8.47;;
5085;SDS011;4715;51.660;7.082;2023-03-12T11:07:22;10.63;;;9.53;;
5085;SDS011;4715;51.660;7.082;2023-03-12T11:10:02;12.40;;;9.30;;
5085;SDS011;4715;51.660;7.082;2023-03-12T11:12:36;9.93;;;8.17;;
5085;SDS011;4715;51.660;7.082;2023-03-12T11:14:59;14.53;;;10.00;;
5085;SDS011;4715;51.660;7.082;2023-03-12T11:17:43;12.10;;;10.17;;
5085;SDS011;4715;51.660;7.082;2023-03-12T11:20:16;14.77;;;10.07;;
5085;SDS011;4715;51.660;7.082;2023-03-12T11:22:44;14.23;;;9.57;;
5085;SDS011;4715;51.660;7.082;2023-03-12T11:25:18;14.03;;;11.30;;
5085;SDS011;4715;51.660;7.082;2023-03-12T11:27:43;18.97;;;11.30;;
5085;SDS011;4715;51.660;7.082;2023-03-12T11:30:10;16.93;;;11.70;;
5085;SDS011;4715;51.660;7.082;2023-03-12T11:32:36;17.67;;;11.17;;
5085;SDS011;4715;51.660;7.082;2023-03-12T11:35:07;17.80;;;13.30;;
5085;SDS011;4715;51.660;7.082;2023-03-12T11:37:35;20.37;;;14.43;;
5085;SDS011;4715;51.660;7.082;2023-03-12T11:40:08;25.53;;;16.53;;
5085;SDS011;4715;51.660;7.082;2023-03-12T11:42:40;31.00;;;16.90;;
5085;SDS011;4715;51.660;7.082;2023-03-12T11:45:17;24.40;;;15.50;;
5085;SDS011;4715;51.660;7.082;2023-03-12T11:47:49;36.93;;;17.43;;
5085;SDS011;4715;51.660;7.082;2023-03-12T11:50:23;30.27;;;19.23;;
5085;SDS011;4715;51.660;7.082;2023-03-12T11:52:55;28.40;;;19.20;;
5085;SDS011;4715;51.660;7.082;2023-03-12T11:55:34;34.17;;;21.57;;
5085;SDS011;4715;51.660;7.082;2023-03-12T11:58:07;36.80;;;21.77;;
5085;SDS011;4715;51.660;7.082;2023-03-12T12:00:45;37.70;;;20.33;;
5085;SDS011;4715;51.660;7.082;2023-03-12T12:03:25;31.70;;;20.40;;
5085;SDS011;4715;51.660;7.082;2023-03-12T12:06:01;35.33;;;21.00;;
5085;SDS011;4715;51.660;7.082;2023-03-12T12:08:39;38.83;;;23.33;;
5085;SDS011;4715;51.660;7.082;2023-03-12T12:11:26;47.73;;;24.40;;
5085;SDS011;4715;51.660;7.082;2023-03-12T12:13:57;36.60;;;23.37;;
5085;SDS011;4715;51.660;7.082;2023-03-12T12:16:38;38.73;;;23.17;;
5085;SDS011;4715;51.660;7.082;2023-03-12T12:19:16;40.10;;;23.10;;
5085;SDS011;4715;51.660;7.082;2023-03-12T12:21:58;36.10;;;21.80;;
5085;SDS011;4715;51.660;7.082;2023-03-12T12:24:32;36.33;;;23.90;;
5085;SDS011;4715;51.660;7.082;2023-03-12T12:27:14;30.57;;;20.27;;
5085;SDS011;4715;51.660;7.082;2023-03-12T12:29:47;34.83;;;21.30;;
5085;SDS011;4715;51.660;7.082;2023-03-12T12:32:49;30.83;;;20.80;;
5085;SDS011;4715;51.660;7.082;2023-03-12T12:35:24;28.20;;;20.43;;
5085;SDS011;4715;51.660;7.082;2023-03-12T12:38:06;32.10;;;20.90;;
5085;SDS011;4715;51.660;7.082;2023-03-12T12:40:37;29.50;;;21.13;;
5085;SDS011;4715;51.660;7.082;2023-03-12T12:43:04;31.70;;;21.37;;
5085;SDS011;4715;51.660;7.082;2023-03-12T12:45:34;29.57;;;21.37;;
5085;SDS011;4715;51.660;7.082;2023-03-12T12:48:03;38.60;;;21.90;;
5085;SDS011;4715;51.660;7.082;2023-03-12T12:50:32;27.57;;;20.80;;
5085;SDS011;4715;51.660;7.082;2023-03-12T12:53:00;28.33;;;20.67;;
5085;SDS011;4715;51.660;7.082;2023-03-12T12:55:36;25.43;;;19.00;;
5085;SDS011;4715;51.660;7.082;2023-03-12T12:58:11;33.50;;;20.50;;
5085;SDS011;4715;51.660;7.082;2023-03-12T13:00:39;28.43;;;18.00;;
5085;SDS011;4715;51.660;7.082;2023-03-12T13:03:05;26.80;;;18.47;;
5085;SDS011;4715;51.660;7.082;2023-03-12T13:05:39;23.77;;;16.90;;
5085;SDS011;4715;51.660;7.082;2023-03-12T13:08:18;29.57;;;18.80;;
5085;SDS011;4715;51.660;7.082;2023-03-12T13:10:53;27.23;;;17.30;;
5085;SDS011;4715;51.660;7.082;2023-03-12T13:13:18;27.03;;;17.20;;
5085;SDS011;4715;51.660;7.082;2023-03-12T13:15:41;23.23;;;16.53;;
5085;SDS011;4715;51.660;7.082;2023-03-12T13:18:05;27.53;;;18.10;;
5085;SDS011;4715;51.660;7.082;2023-03-12T13:20:32;29.67;;;18.10;;
5085;SDS011;4715;51.660;7.082;2023-03-12T13:23:04;27.97;;;18.17;;
5085;SDS011;4715;51.660;7.082;2023-03-12T13:25:46;26.90;;;17.90;;
5085;SDS011;4715;51.660;7.082;2023-03-12T13:28:33;22.50;;;16.00;;
5085;SDS011;4715;51.660;7.082;2023-03-12T13:30:59;25.80;;;16.27;;
5085;SDS011;4715;51.660;7.082;2023-03-12T13:33:35;31.10;;;19.07;;
5085;SDS011;4715;51.660;7.082;2023-03-12T13:36:05;27.00;;;16.97;;
5085;SDS011;4715;51.660;7.082;2023-03-12T13:38:53;28.63;;;17.03;;
5085;SDS011;4715;51.660;7.082;2023-03-12T13:41:27;29.93;;;17.70;;
5085;SDS011;4715;51.660;7.082;2023-03-12T13:43:51;24.80;;;17.23;;
5085;SDS011;4715;51.660;7.082;2023-03-12T13:46:26;25.57;;;16.00;;
5085;SDS011;4715;51.660;7.082;2023-03-12T13:49:04;23.50;;;15.00;;
5085;SDS011;4715;51.660;7.082;2023-03-12T13:51:31;28.47;;;14.57;;
5085;SDS011;4715;51.660;7.082;2023-03-12T13:54:04;28.87;;;14.70;;
5085;SDS011;4715;51.660;7.082;2023-03-12T13:56:27;26.63;;;15.43;;
5085;SDS011;4715;51.660;7.082;2023-03-12T13:58:53;22.17;;;14.23;;
5085;SDS011;4715;51.660;7.082;2023-03-12T14:01:17;21.37;;;13.23;;
5085;SDS011;4715;51.660;7.082;2023-03-12T14:03:42;36.10;;;14.00;;
5085;SDS011;4715;51.660;7.082;2023-03-12T14:06:09;31.27;;;12.60;;
5085;SDS011;4715;51.660;7.082;2023-03-12T14:11:46;31.30;;;13.23;;
5085;SDS011;4715;51.660;7.082;2023-03-12T14:14:31;21.50;;;11.83;;
5085;SDS011;4715;51.660;7.082;2023-03-12T14:17:20;18.70;;;12.87;;
5085;SDS011;4715;51.660;7.082;2023-03-12T14:19:46;24.90;;;12.97;;
5085;SDS011;4715;51.660;7.082;2023-03-12T14:22:11;28.80;;;13.13;;
5085;SDS011;4715;51.660;7.082;2023-03-12T14:24:36;33.60;;;14.00;;
5085;SDS011;4715;51.660;7.082;2023-03-12T14:27:00;24.83;;;13.30;;
5085;SDS011;4715;51.660;7.082;2023-03-12T14:29:25;24.70;;;12.30;;
5085;SDS011;4715;51.660;7.082;2023-03-12T14:31:49;26.67;;;13.23;;
5085;SDS011;4715;51.660;7.082;2023-03-12T14:34:15;19.80;;;12.97;;
5085;SDS011;4715;51.660;7.082;2023-03-12T14:36:41;28.67;;;12.10;;
5085;SDS011;4715;51.660;7.082;2023-03-12T14:39:11;29.60;;;11.73;;
5085;SDS011;4715;51.660;7.082;2023-03-12T14:41:43;20.30;;;11.40;;
5085;SDS011;4715;51.660;7.082;2023-03-12T14:44:16;29.27;;;12.07;;
5085;SDS011;4715;51.660;7.082;2023-03-12T14:46:44;36.17;;;14.60;;
5085;SDS011;4715;51.660;7.082;2023-03-12T14:49:08;33.07;;;11.57;;
5085;SDS011;4715;51.660;7.082;2023-03-12T14:51:39;23.30;;;10.67;;
5085;SDS011;4715;51.660;7.082;2023-03-12T14:54:04;25.37;;;10.07;;
5085;SDS011;4715;51.660;7.082;2023-03-12T14:56:39;23.60;;;8.67;;
5085;SDS011;4715;51.660;7.082;2023-03-12T14:59:19;28.33;;;8.00;;
5085;SDS011;4715;51.660;7.082;2023-03-12T15:01:43;17.93;;;7.60;;
5085;SDS011;4715;51.660;7.082;2023-03-12T15:04:06;25.47;;;7.20;;